Terminal Aerodrome Forecast
Issued by NWS Buffalo, NY

Home | Current Version | Previous Version | Text Only | Print | Product List | Glossary On
Versions: 1 2 3 4 5 6 7 8 9 10 11 12 13 14 15 16 17 18 19 20 21 22 23 24 25 26
000
FTUS41 KBUF 010236 AAA
TAFART
TAF AMD
KART 010236Z 0103/0124 22005KT 2SM BR FEW250
     FM010400 VRB03KT 1SM BR SKC
     FM010800 18004KT 3SM BR SKC
     FM011100 18004KT P6SM FEW250=

USA.gov is the U.S. government's official web portal to all federal, state and local government web resources and services.